Flight Track Log - Related Links

Times and Time Zones

All times are in EDT time to prevent confusion due to time zone crossing. See the AAL832 flight status page for this flight to view local times or setup timezone preferences in your user account.

Time Position Orientation Groundspeed Altitude Reporting Facility
EDT Latitude Longitude Course Direction KTS MPH feet Rate Location/Type
Sat 12:22:34 PM 33.9333 -118.4667 90° East 191 220 2,100  Level Southern California TRACON
Sat 12:23:50 PM 33.8525 -118.5131 205° Southwest 268 308 5,100 2,522 Climbing Los Angeles Center
Sat 12:24:00 PM 33.7667 -118.0234 90° East  Level FlightAware Approximate
Sat 12:24:52 PM 33.7844 -118.5289 191° South 284 327 7,900  Level Los Angeles Center
Sat 12:25:00 PM 33.7667 -117.8762 90° East  Level FlightAware Approximate
Sat 12:25:54 PM 33.6942 -118.4989 165° South 296 341 10,800  Level Los Angeles Center
Sat 12:26:00 PM 33.7466 -117.7321 97° East  Level FlightAware Approximate
Sat 12:26:56 PM 33.6664 -118.4044 109° East 308 354 13,200  Level Los Angeles Center
Sat 12:27:00 PM 33.7333 -117.5859 90° East  Level FlightAware Approximate
Sat 12:27:58 PM 33.6653 -118.2867 91° East 349 402 14,600  Level Los Angeles Center
Sat 12:29:01 PM 33.6619 -118.1392 92° East 389 448 17,100 2,112 Climbing Los Angeles Center
Sat 12:30:03 PM 33.6592 -118.0050 91° East 403 464 19,000 1,887 Climbing Los Angeles Center
Sat 12:31:05 PM 33.6586 -117.8661 90° East 416 479 21,000 1,839 Climbing Los Angeles Center
Sat 12:32:07 PM 33.6561 -117.7244 91° East 426 490 22,800 1,645 Climbing Los Angeles Center
Sat 12:33:09 PM 33.6539 -117.5792 91° East 436 502 24,400 1,548 Climbing Los Angeles Center
Sat 12:34:11 PM 33.6522 -117.4292 91° East 449 517 26,000 1,548 Climbing Los Angeles Center
Sat 12:35:13 PM 33.6492 -117.2481 91° East 454 522 27,600 1,548 Climbing Los Angeles Center
Sat 12:36:15 PM 33.6469 -117.0919 91° East 467 537 29,200 1,548 Climbing Los Angeles Center
Sat 12:37:17 PM 33.6456 -116.9392 91° East 462 532 30,800 1,500 Climbing Los Angeles Center
Sat 12:38:19 PM 33.6753 -116.7714 78° East 458 527 32,300 1,258 Climbing Los Angeles Center
Sat 12:39:21 PM 33.7064 -116.6192 76° East 465 535 33,400 1,113 Climbing Los Angeles Center
Sat 12:40:23 PM 33.7383 -116.4667 76° East 468 539 34,600 1,104 Climbing Los Angeles Center
Sat 12:41:26 PM 33.7686 -116.3119 77° East 473 544 35,700 1,008 Climbing Los Angeles Center
Sat 12:42:28 PM 33.8006 -116.1569 76° East 477 549 36,700 823 Climbing Los Angeles Center
Sat 12:43:30 PM 33.8331 -116.0014 76° East 478 550 37,400 726 Climbing Los Angeles Center
Sat 12:44:32 PM 33.8711 -115.8142 76° East 479 551 38,200 629 Climbing Los Angeles Center
Sat 12:45:34 PM 33.9031 -115.6558 76° East 485 558 38,700 387 Climbing Los Angeles Center
Sat 12:46:36 PM 33.9350 -115.4994 76° East 483 556 39,000 145 Climbing Los Angeles Center
Sat 12:47:38 PM 33.9661 -115.3422 77° East 483 556 39,000  Level Los Angeles Center
Sat 12:48:40 PM 33.9978 -115.1881 76° East 477 549 39,000  Level Los Angeles Center
Sat 12:49:42 PM 34.0294 -115.0358 76° East 471 542 39,000  Level Los Angeles Center
Sat 12:50:44 PM 34.0606 -114.8833 76° East 470 541 39,000  Level Los Angeles Center
Sat 12:51:47 PM 34.0967 -114.7006 77° East 470 541 39,000  Level Los Angeles Center
Sat 12:52:49 PM 34.1364 -114.5531 72° East 467 537 39,000  Level Los Angeles Center
Sat 12:53:51 PM 34.1781 -114.4050 71° East 468 539 39,000  Level Los Angeles Center
Sat 12:54:10 PM 34.1883 -114.3708 70° East 465 535 39,000  Level Albuquerque Center
Sat 12:55:12 PM 34.2389 -114.1919 71° East 468 539 39,000  Level Albuquerque Center
Sat 12:56:14 PM 34.2792 -114.0422 72° East 468 539 39,000  Level Albuquerque Center
Sat 12:57:15 PM 34.3214 -113.8922 71° East 469 540 39,000  Level Albuquerque Center
Sat 12:58:17 PM 34.3639 -113.7428 71° East 470 541 39,000  Level Albuquerque Center
Sat 12:59:19 PM 34.4056 -113.5925 71° East 472 543 39,000  Level Albuquerque Center
Sat 01:00:21 PM 34.4508 -113.4339 71° East 469 540 39,000  Level Albuquerque Center
Sat 01:01:23 PM 34.4906 -113.2833 72° East 471 542 39,000  Level Albuquerque Center
Sat 01:02:25 PM 34.5308 -113.1322 72° East 473 544 39,000  Level Albuquerque Center
Sat 01:03:26 PM 34.5781 -112.9506 72° East 475 547 39,000  Level Albuquerque Center
Sat 01:04:28 PM 34.6178 -112.8000 72° East 474 545 39,000  Level Albuquerque Center
Sat 01:05:30 PM 34.6583 -112.6486 72° East 475 547 39,000  Level Albuquerque Center
Sat 01:06:32 PM 34.6969 -112.4981 73° East 475 547 39,000  Level Albuquerque Center
Sat 01:07:34 PM 34.7339 -112.3444 74° East 473 544 39,000  Level Albuquerque Center
Sat 01:08:35 PM 34.7669 -112.1958 75° East 470 541 39,000  Level Albuquerque Center
Sat 01:09:37 PM 34.8092 -112.0136 74° East 471 542 39,000  Level Albuquerque Center
Sat 01:10:39 PM 34.8436 -111.8628 74° East 469 540 39,000 -97 Level Albuquerque Center
Sat 01:11:41 PM 34.8800 -111.7006 75° East 469 540 38,800 -629 Descending Albuquerque Center
Sat 01:12:43 PM 34.9131 -111.5481 75° East 467 537 37,700 -871 Descending Albuquerque Center
Sat 01:13:45 PM 34.9464 -111.3994 75° East 458 527 37,000 -341 Descending Albuquerque Center
Sat 01:14:46 PM 34.9792 -111.2522 75° East 452 520 37,000  Level Albuquerque Center
Sat 01:15:48 PM 35.0125 -111.1039 75° East 452 520 37,000  Level Albuquerque Center
Sat 01:16:50 PM 35.0444 -110.9522 76° East 459 528 37,000  Level Albuquerque Center
Sat 01:17:52 PM 35.0828 -110.7789 75° East 463 533 37,000  Level Albuquerque Center
Sat 01:18:54 PM 35.1200 -110.6086 75° East 465 535 37,000  Level Albuquerque Center
Sat 01:19:56 PM 35.1500 -110.4619 76° East 465 535 37,000  Level Albuquerque Center
Sat 01:20:58 PM 35.1825 -110.3156 75° East 466 536 37,000  Level Albuquerque Center
Sat 01:22:00 PM 35.2192 -110.1469 75° East 463 533 37,000  Level Albuquerque Center
Sat 01:23:02 PM 35.2500 -110.0006 75° East 464 534 37,000  Level Albuquerque Center
Sat 01:24:03 PM 35.2858 -109.8292 76° East 465 535 37,000  Level Albuquerque Center
Sat 01:25:05 PM 35.3172 -109.6819 75° East 467 537 37,000  Level Albuquerque Center
Sat 01:26:07 PM 35.3508 -109.5094 77° East 467 537 37,000  Level Albuquerque Center
Sat 01:27:09 PM 35.3803 -109.3631 76° East 465 535 37,000  Level Albuquerque Center
Sat 01:28:11 PM 35.4153 -109.1900 76° East 469 540 37,000  Level Albuquerque Center
Sat 01:29:13 PM 35.4444 -109.0436 76° East 466 536 37,000  Level Albuquerque Center
Sat 01:30:15 PM 35.4789 -108.8719 76° East 467 537 37,000  Level Albuquerque Center
Sat 01:31:16 PM 35.5167 -108.7292 72° East 464 534 37,000  Level Albuquerque Center
Sat 01:32:18 PM 35.5622 -108.5617 71° East 465 535 37,000  Level Albuquerque Center
Sat 01:33:20 PM 35.6011 -108.4189 71° East 464 534 37,000  Level Albuquerque Center
Sat 01:34:22 PM 35.6467 -108.2531 71° East 463 533 37,000  Level Albuquerque Center
Sat 01:35:24 PM 35.6844 -108.1117 72° East 459 528 37,000  Level Albuquerque Center
Sat 01:36:26 PM 35.7269 -107.9456 72° East 458 527 37,000  Level Albuquerque Center
Sat 01:37:28 PM 35.7642 -107.8047 72° East 455 524 37,000  Level Albuquerque Center
Sat 01:38:30 PM 35.8056 -107.6411 73° East 452 520 37,000  Level Albuquerque Center
Sat 01:39:32 PM 35.8414 -107.5011 72° East 450 518 37,000  Level Albuquerque Center
Sat 01:40:34 PM 35.8792 -107.3597 72° East 452 520 37,000  Level Albuquerque Center
Sat 01:41:36 PM 35.9206 -107.1958 73° East 450 518 37,000  Level Albuquerque Center
Sat 01:42:38 PM 35.9550 -107.0594 73° East 448 516 37,000  Level Albuquerque Center
Sat 01:43:40 PM 35.9939 -106.9119 72° East 449 517 37,000  Level Albuquerque Center
Sat 01:44:42 PM 36.0314 -106.7642 73° East 450 518 37,000  Level Albuquerque Center
Sat 01:45:43 PM 36.0772 -106.5844 72° East 454 522 37,000  Level Albuquerque Center
Sat 01:46:45 PM 36.1139 -106.4347 73° East 455 524 37,000  Level Albuquerque Center
Sat 01:47:47 PM 36.1522 -106.2869 72° East 452 520 37,000  Level Albuquerque Center
Sat 01:48:49 PM 36.1889 -106.1361 73° East 455 524 37,000  Level Albuquerque Center
Sat 01:49:51 PM 36.2256 -105.9867 73° East 455 524 37,000  Level Albuquerque Center
Sat 01:50:53 PM 36.2619 -105.8339 74° East 459 528 37,000  Level Albuquerque Center
Sat 01:51:55 PM 36.2978 -105.6817 74° East 461 531 37,000  Level Albuquerque Center
Sat 01:52:57 PM 36.3383 -105.5153 73° East 455 524 37,000  Level Albuquerque Center
Sat 01:53:59 PM 36.3742 -105.3628 74° East 455 524 37,000  Level Albuquerque Center
Sat 01:55:00 PM 36.4169 -105.1869 73° East 453 521 37,000  Level Albuquerque Center
Sat 01:56:02 PM 36.4533 -105.0358 73° East 453 521 37,000  Level Albuquerque Center
Sat 01:57:04 PM 36.4894 -104.8839 73° East 453 521 37,000  Level Albuquerque Center
Sat 01:58:06 PM 36.5397 -104.7397 66° East 450 518 37,000  Level Albuquerque Center
Sat 01:59:08 PM 36.5908 -104.5967 66° East 448 516 37,000  Level Albuquerque Center
Sat 02:00:10 PM 36.6428 -104.4528 66° East 450 518 37,000  Level Albuquerque Center
Sat 02:01:11 PM 36.6997 -104.2986 65° Northeast 450 518 37,000  Level Albuquerque Center
Sat 02:02:13 PM 36.7483 -104.1622 66° East 449 517 37,000  Level Albuquerque Center
Sat 02:03:15 PM 36.8053 -104.0042 66° East 450 518 37,000  Level Albuquerque Center
Sat 02:04:17 PM 36.8536 -103.8686 66° East 449 517 37,000  Level Albuquerque Center
Sat 02:05:18 PM 36.9111 -103.7111 65° Northeast 449 517 37,000  Level Albuquerque Center
Sat 02:06:20 PM 36.9581 -103.5764 66° East 447 514 37,000  Level Albuquerque Center
Sat 02:07:22 PM 37.0058 -103.4403 66° East 448 516 37,000  Level Albuquerque Center
Sat 02:08:24 PM 37.0625 -103.2808 66° East 450 518 37,000  Level Albuquerque Center
Sat 02:09:25 PM 37.1094 -103.1442 67° East 450 518 37,000  Level Albuquerque Center
Sat 02:10:27 PM 37.1644 -102.9839 67° East 450 518 37,000  Level Albuquerque Center
Sat 02:11:29 PM 37.2131 -102.8458 66° East 452 520 37,000  Level Albuquerque Center
Sat 02:12:30 PM 37.2697 -102.6861 66° East 450 518 37,000  Level Albuquerque Center
Sat 02:13:32 PM 37.3150 -102.5492 67° East 447 514 37,000  Level Albuquerque Center
Sat 02:14:34 PM 37.3706 -102.3897 66° East 447 514 37,000  Level Albuquerque Center
Sat 02:15:35 PM 37.4144 -102.2561 67° East 446 513 37,000  Level Albuquerque Center
Sat 02:16:37 PM 37.4667 -102.0967 68° East 443 510 37,000  Level Albuquerque Center
Sat 02:17:39 PM 37.5122 -101.9611 67° East 440 506 37,000  Level Albuquerque Center
Sat 02:19:02 PM 37.5800 -101.7564 67° East 440 506 37,000  Level Kansas City Center
Sat 02:20:03 PM 37.6242 -101.6217 67° East 436 502 37,000  Level Kansas City Center
Sat 02:21:05 PM 37.6764 -101.4639 67° East 436 502 37,000  Level Kansas City Center
Sat 02:22:07 PM 37.7211 -101.3267 68° East 439 505 37,000  Level Kansas City Center
Sat 02:23:09 PM 37.7661 -101.1903 67° East 438 504 37,000  Level Kansas City Center
Sat 02:24:11 PM 37.8183 -101.0297 68° East 438 504 37,000  Level Kansas City Center
Sat 02:25:13 PM 37.8650 -100.8919 67° East 438 504 37,000  Level Kansas City Center
Sat 02:26:14 PM 37.9108 -100.7542 67° East 440 506 37,000  Level Kansas City Center
Sat 02:27:16 PM 37.9647 -100.5947 67° East 439 505 37,000  Level Kansas City Center
Sat 02:28:18 PM 38.0119 -100.4597 66° East 437 503 37,000  Level Kansas City Center
Sat 02:29:20 PM 38.0661 -100.3003 67° East 438 504 37,000  Level Kansas City Center
Sat 02:30:21 PM 38.1114 -100.1642 67° East 438 504 37,000  Level Kansas City Center
Sat 02:31:23 PM 38.1636 -100.0081 67° East 433 498 37,000  Level Kansas City Center
Sat 02:32:25 PM 38.2083 -99.8722 67° East 434 499 37,000  Level Kansas City Center
Sat 02:33:27 PM 38.2589 -99.7142 68° East 432 497 37,000  Level Kansas City Center
Sat 02:34:29 PM 38.3044 -99.5794 67° East 433 498 37,000  Level Kansas City Center
Sat 02:35:30 PM 38.3492 -99.4381 68° East 433 498 37,000  Level Kansas City Center
Sat 02:36:32 PM 38.3961 -99.2958 67° East 434 499 37,000  Level Kansas City Center
Sat 02:37:34 PM 38.4431 -99.1542 67° East 433 498 37,000  Level Kansas City Center
Sat 02:38:36 PM 38.4894 -99.0106 68° East 436 502 37,000  Level Kansas City Center
Sat 02:39:37 PM 38.5361 -98.8678 67° East 435 501 37,000  Level Kansas City Center
Sat 02:40:39 PM 38.5831 -98.7214 68° East 441 507 37,000  Level Kansas City Center
Sat 02:41:41 PM 38.6378 -98.5467 68° East 439 505 37,000  Level Kansas City Center
Sat 02:42:43 PM 38.6844 -98.4017 68° East 440 506 37,000  Level Kansas City Center
Sat 02:43:44 PM 38.7303 -98.2569 68° East 440 506 37,000  Level Kansas City Center
Sat 02:44:46 PM 38.7758 -98.1108 68° East 440 506 37,000  Level Kansas City Center
Sat 02:45:48 PM 38.8214 -97.9653 68° East 439 505 37,000  Level Kansas City Center
Sat 02:46:50 PM 38.8672 -97.8197 68° East 439 505 37,000  Level Kansas City Center
Sat 02:47:51 PM 38.9175 -97.6567 68° East 438 504 37,000  Level Kansas City Center
Sat 02:48:53 PM 38.9625 -97.4942 70° East 442 509 37,000  Level Kansas City Center
Sat 02:49:55 PM 39.0003 -97.3472 72° East 441 507 37,000  Level Kansas City Center
Sat 02:50:56 PM 39.0383 -97.2031 71° East 444 511 37,000  Level Kansas City Center
Sat 02:51:58 PM 39.0822 -97.0358 71° East 442 509 37,000  Level Kansas City Center
Sat 02:53:00 PM 39.1206 -96.8911 71° East 446 513 37,000  Level Kansas City Center
Sat 02:54:01 PM 39.1578 -96.7453 72° East 446 513 37,000  Level Kansas City Center
Sat 02:55:03 PM 39.2014 -96.5747 72° East 448 516 37,000  Level Kansas City Center
Sat 02:56:05 PM 39.2375 -96.4294 72° East 446 513 37,000  Level Kansas City Center
Sat 02:57:06 PM 39.2756 -96.2819 72° East 450 518 37,000  Level Kansas City Center
Sat 02:58:08 PM 39.3181 -96.1092 72° East 452 520 37,000  Level Kansas City Center
Sat 02:59:10 PM 39.3611 -95.9375 72° East 450 518 37,000  Level Kansas City Center
Sat 03:00:11 PM 39.3983 -95.7883 72° East 453 521 37,000  Level Kansas City Center
Sat 03:01:13 PM 39.4350 -95.6400 72° East 452 520 37,000  Level Kansas City Center
Sat 03:02:15 PM 39.4767 -95.4661 73° East 449 517 37,000  Level Kansas City Center
Sat 03:03:16 PM 39.5144 -95.3106 72° East 450 518 37,000  Level Kansas City Center
Sat 03:04:18 PM 39.5492 -95.1664 73° East 452 520 37,000  Level Kansas City Center
Sat 03:05:20 PM 39.5911 -94.9917 73° East 452 520 37,000  Level Kansas City Center
Sat 03:06:21 PM 39.6272 -94.8422 73° East 451 519 37,000  Level Kansas City Center
Sat 03:07:23 PM 39.6686 -94.6661 73° East 456 525 37,000  Level Kansas City Center
Sat 03:08:25 PM 39.7044 -94.5142 73° East 457 526 37,000  Level Kansas City Center
Sat 03:09:27 PM 39.7406 -94.3617 73° East 460 529 37,000  Level Kansas City Center
Sat 03:10:28 PM 39.7814 -94.1828 73° East 461 531 37,000  Level Kansas City Center
Sat 03:11:30 PM 39.8153 -94.0317 74° East 469 540 37,000  Level Kansas City Center
Sat 03:12:32 PM 39.8503 -93.8697 74° East 469 540 37,000  Level Kansas City Center
Sat 03:13:33 PM 39.8942 -93.6778 73° East 465 535 37,000  Level Kansas City Center
Sat 03:14:35 PM 39.9300 -93.5183 74° East 464 534 37,000  Level Kansas City Center
Sat 03:15:37 PM 39.9653 -93.3611 74° East 459 528 37,000  Level Kansas City Center
Sat 03:16:38 PM 40.0019 -93.2028 73° East 461 531 37,000  Level Kansas City Center
Sat 03:17:40 PM 40.0364 -93.0444 74° East 460 529 37,000  Level Kansas City Center
Sat 03:18:41 PM 40.0728 -92.8719 75° East 462 532 37,000  Level Kansas City Center
Sat 03:19:43 PM 40.1119 -92.6914 74° East 463 533 37,000  Level Kansas City Center
Sat 03:20:45 PM 40.1517 -92.5386 71° East 464 534 37,000  Level Kansas City Center
Sat 03:21:46 PM 40.2178 -92.3717 63° Northeast 462 532 37,000  Level Kansas City Center
Sat 03:22:48 PM 40.2628 -92.2406 66° East 471 542 37,000  Level Kansas City Center
Sat 03:23:49 PM 40.3275 -92.0589 65° Northeast 466 536 37,000  Level Kansas City Center
Sat 03:24:51 PM 40.3825 -91.9053 65° Northeast 468 539 37,000 -484 Level Kansas City Center
Sat 03:25:53 PM 40.4361 -91.7503 66° East 470 541 36,000 -1,290 Descending Kansas City Center
Sat 03:26:38 PM 40.4800 -91.6236 65° Northeast 477 549 34,700 -1,570 Descending Chicago Center
Sat 03:27:40 PM 40.5339 -91.4656 66° East 478 550 33,200 -823 Descending Chicago Center
Sat 03:28:42 PM 40.5869 -91.3061 66° East 479 551 33,000 -98 Descending Chicago Center
Sat 03:29:43 PM 40.6431 -91.1453 65° Northeast 477 549 33,000  Level Chicago Center
Sat 03:30:45 PM 40.6978 -90.9833 66° East 482 555 33,000  Level Chicago Center
Sat 03:31:47 PM 40.7528 -90.8211 66° East 484 557 33,000 -532 Level Chicago Center
Sat 03:32:49 PM 40.8181 -90.6250 66° East 485 558 31,900 -1,317 Descending Chicago Center
Sat 03:33:50 PM 40.8731 -90.4631 66° East 483 556 30,300 -1,415 Descending Chicago Center
Sat 03:34:52 PM 40.9267 -90.3031 66° East 473 544 29,000 -1,258 Descending Chicago Center
Sat 03:35:54 PM 40.9783 -90.1475 66° East 472 543 27,700 -1,355 Descending Chicago Center
Sat 03:36:56 PM 41.0317 -89.9833 67° East 465 535 26,200 -1,415 Descending Chicago Center
Sat 03:37:57 PM 41.0833 -89.8283 66° East 456 525 24,800 -1,073 Descending Chicago Center
Sat 03:38:59 PM 41.1322 -89.6778 67° East 445 512 24,000 -1,210 Descending Chicago Center
Sat 03:40:01 PM 41.1839 -89.5314 65° Northeast 438 504 22,300 -1,839 Descending Chicago Center
Sat 03:41:03 PM 41.2414 -89.3922 61° Northeast 431 496 20,200 -2,195 Descending Chicago Center
Sat 03:42:04 PM 41.2950 -89.2603 62° Northeast 412 474 17,800 -2,146 Descending Chicago Center
Sat 03:43:06 PM 41.3472 -89.1222 63° Northeast 386 444 15,800 -1,839 Descending Chicago Center
Sat 03:44:08 PM 41.3964 -89.0019 61° Northeast 374 430 14,000 -1,887 Descending Chicago Center
Sat 03:45:10 PM 41.4536 -88.8564 62° Northeast 370 426 11,900 -1,463 Descending Chicago Center
Sat 03:46:11 PM 41.5008 -88.7381 62° Northeast 364 419 11,000 -439 Descending Chicago Center
Sat 03:47:13 PM 41.5478 -88.6197 62° Northeast 362 417 11,000  Level Chicago Center
Sat 03:48:15 PM 41.6061 -88.5097 55° Northeast 367 422 11,000  Level Chicago Center
Sat 03:49:17 PM 41.6731 -88.4042 50° Northeast 371 427 11,000  Level Chicago Center
Sat 03:50:18 PM 41.7381 -88.2997 50° Northeast 366 421 11,000 -293 Level Chicago Center
Sat 03:51:20 PM 41.7942 -88.2106 50° Northeast 320 368 10,400 -871 Descending Chicago Center
Sat 03:52:22 PM 41.8425 -88.1267 52° Northeast 289 333 9,200 -1,415 Descending Chicago Center
Sat 03:53:23 PM 41.8800 -88.0150 66° East 275 316 7,500 -1,073 Descending Chicago Center
Sat 03:54:25 PM 41.9131 -87.9231 64° Northeast 274 315 7,000 -244 Descending Chicago Center
Sat 03:55:26 PM 41.9444 -87.8339 65° Northeast 266 306 7,000  Level Chicago Center

Login

Don't have an account? Register now (free) for customized features, flight alerts, and more!